createdAt,value
2019-05-13T00:04:39.098Z,7.4
2019-05-13T00:09:44.073Z,7.3
2019-05-13T00:14:43.921Z,7.2
2019-05-13T00:19:46.500Z,7.2
2019-05-13T00:24:48.833Z,7.1
2019-05-13T00:29:53.388Z,7.1
2019-05-13T00:34:53.742Z,7.1
2019-05-13T00:39:56.469Z,7
2019-05-13T00:44:58.544Z,7
2019-05-13T00:50:03.496Z,6.9
2019-05-13T00:55:04.200Z,6.9
2019-05-13T01:00:05.880Z,6.8
2019-05-13T01:05:08.495Z,6.8
2019-05-13T01:10:12.897Z,6.7
2019-05-13T01:15:13.585Z,6.7
2019-05-13T01:20:15.643Z,6.7
2019-05-13T01:25:18.271Z,6.7
2019-05-13T01:30:20.498Z,6.6
2019-05-13T01:35:23.561Z,6.5
2019-05-13T01:40:25.449Z,6.4
2019-05-13T01:45:27.881Z,6.4
2019-05-13T01:50:30.281Z,6.3
2019-05-13T01:55:33.841Z,6.2
2019-05-13T02:00:35.664Z,6.2
2019-05-13T02:05:37.684Z,6.2
2019-05-13T02:15:42.476Z,6
2019-05-13T02:20:44.928Z,5.9
2019-05-13T02:25:47.351Z,5.9
2019-05-13T02:30:49.918Z,5.8
2019-05-13T02:35:53.247Z,5.8
2019-05-13T02:40:54.997Z,5.7
2019-05-13T02:45:57.101Z,5.6
2019-05-13T02:51:03.281Z,5.6
2019-05-13T02:56:03.110Z,5.5
2019-05-13T03:01:04.558Z,5.4
2019-05-13T03:06:06.910Z,5.4
2019-05-13T03:11:12.335Z,5.3
2019-05-13T03:16:13.079Z,5.2
2019-05-13T03:21:14.195Z,5.1
2019-05-13T03:26:16.713Z,5
2019-05-13T04:46:55.753Z,4.9
2019-05-13T04:57:02.873Z,5
2019-05-13T05:02:04.725Z,5
2019-05-13T05:07:05.415Z,5.2
2019-05-13T05:12:07.874Z,5.2
2019-05-13T05:17:12.361Z,5.2
2019-05-13T05:22:13.382Z,5.2
2019-05-13T05:27:15.141Z,5.3
2019-05-13T05:32:17.577Z,5.4
2019-05-13T05:37:21.691Z,5.5
2019-05-13T05:42:22.464Z,5.6
2019-05-13T05:47:24.960Z,5.7
2019-05-13T05:52:27.365Z,5.8
2019-05-13T05:57:31.381Z,5.9
2019-05-13T06:07:34.651Z,6
2019-05-13T06:12:37.387Z,6.1
2019-05-13T06:17:41.256Z,6.1
2019-05-13T06:22:42.593Z,6.1
2019-05-13T06:27:44.482Z,6.1
2019-05-13T06:32:46.969Z,6.1
2019-05-13T06:37:49.299Z,6.2
2019-05-13T06:42:52.190Z,6.2
2019-05-13T06:47:54.196Z,6.3
2019-05-13T06:52:56.648Z,6.4
2019-05-13T06:57:59.077Z,6.4
2019-05-13T07:03:02.212Z,6.5
2019-05-13T07:08:03.960Z,6.4
2019-05-13T07:13:06.523Z,6.4
2019-05-13T07:18:11.347Z,6.5
2019-05-13T07:23:12.091Z,6.5
2019-05-13T07:28:13.983Z,6.6
2019-05-13T07:33:16.234Z,6.6
2019-05-13T07:38:18.725Z,6.7
2019-05-13T07:43:21.450Z,6.8
2019-05-13T07:48:27.430Z,6.8
2019-05-13T07:53:26.794Z,7
2019-05-13T07:58:28.383Z,7
2019-05-13T08:03:31.673Z,7.1
2019-05-13T08:08:33.258Z,7.1
2019-05-13T08:13:35.696Z,7.2
2019-05-13T08:18:38.146Z,7.4
2019-05-13T08:23:41.667Z,7.5
2019-05-13T08:28:56.858Z,7.7
2019-05-13T08:33:45.494Z,7.8
2019-05-13T08:38:47.893Z,7.9
2019-05-13T08:43:52.311Z,8.1
2019-05-13T08:48:52.989Z,8.3
2019-05-13T08:53:55.489Z,8.4
2019-05-13T08:58:57.618Z,8.6
2019-05-13T09:04:02.191Z,8.7
2019-05-13T09:09:02.688Z,8.7
2019-05-13T09:14:04.946Z,8.8
2019-05-13T09:19:07.493Z,8.8
2019-05-13T09:24:21.594Z,8.9
2019-05-13T09:29:12.514Z,9.1
2019-05-13T09:34:14.985Z,9.1
2019-05-13T09:39:17.450Z,9.1
2019-05-13T09:44:21.745Z,9.2
2019-05-13T09:49:23.591Z,9.5
2019-05-13T09:54:24.682Z,9.4
2019-05-13T09:59:26.944Z,9.6
2019-05-13T10:04:31.376Z,9.7
2019-05-13T10:09:32.795Z,9.7
2019-05-13T10:14:34.279Z,9.8
2019-05-13T10:19:36.944Z,10
2019-05-13T10:29:42.399Z,10.5
2019-05-13T10:34:43.984Z,10.5
2019-05-13T10:39:46.552Z,10.6
2019-05-13T10:44:51.729Z,10.4
2019-05-13T10:49:52.288Z,10.7
2019-05-13T10:54:53.860Z,10.5
2019-05-13T10:59:59.633Z,11.2
2019-05-13T11:04:58.725Z,11.2
2019-05-13T11:10:02.856Z,11.7
2019-05-13T11:15:03.566Z,11.6
2019-05-13T11:20:06.167Z,11.1
2019-05-13T11:30:10.875Z,12.2
2019-05-13T11:35:13.293Z,12.3
2019-05-13T11:40:16.178Z,12.4
2019-05-13T11:45:18.129Z,12.2
2019-05-13T11:50:22.299Z,12.7
2019-05-13T11:55:23.202Z,12.7
2019-05-13T12:00:25.654Z,13.2
2019-05-13T12:05:27.973Z,13.3
2019-05-13T12:10:34.795Z,13.5
2019-05-13T12:15:45.192Z,13.9
2019-05-13T12:20:35.221Z,14.2
2019-05-13T12:25:37.744Z,14
2019-05-13T12:30:41.753Z,14.1
2019-05-13T12:35:42.620Z,14
2019-05-13T12:40:47.223Z,13.9
2019-05-13T12:45:47.481Z,13.6
2019-05-13T12:50:52.896Z,13.2
2019-05-13T12:55:56.118Z,13.3
2019-05-13T13:06:21.845Z,12.8
2019-05-13T13:11:05.521Z,12.4
2019-05-13T13:16:03.670Z,12.2
2019-05-13T13:26:14.578Z,12.7
2019-05-13T13:31:12.116Z,12.9
2019-05-13T13:36:15.317Z,12.7
2019-05-13T13:41:22.206Z,12.1
2019-05-13T13:46:36.235Z,11.6
2019-05-13T13:51:25.882Z,11.5
2019-05-13T13:56:25.163Z,11.7
2019-05-13T14:01:27.099Z,12
2019-05-13T14:07:07.037Z,12.6
2019-05-13T14:07:21.304Z,14
2019-05-13T14:11:28.926Z,14.2
2019-05-13T14:16:35.023Z,13.7
2019-05-13T14:21:33.819Z,13.1
2019-05-13T14:26:36.244Z,13.1
2019-05-13T14:31:41.120Z,14.3
2019-05-13T14:36:41.112Z,14.8
2019-05-13T14:41:43.747Z,13.6
2019-05-13T14:51:48.449Z,11.9
2019-05-13T14:56:51.995Z,11.6
2019-05-13T15:01:53.490Z,12.7
2019-05-13T15:06:55.776Z,16.8
2019-05-13T15:11:58.246Z,17.9
2019-05-13T15:17:06.198Z,15.7
2019-05-13T15:22:03.223Z,14
2019-05-13T15:27:05.534Z,12.8
2019-05-13T15:32:08.177Z,12.2
2019-05-13T15:37:11.234Z,11.8
2019-05-13T15:42:12.851Z,12.3
2019-05-13T15:47:22.626Z,15.5
2019-05-13T15:52:18.429Z,15.5
2019-05-13T15:57:21.323Z,14.2
2019-05-13T16:02:22.823Z,13.3
2019-05-13T16:07:25.086Z,12.6
2019-05-13T16:12:27.519Z,12.1
2019-05-13T16:17:38.628Z,13.8
2019-05-13T16:22:32.411Z,13.5
2019-05-13T16:27:34.825Z,13.3
2019-05-13T16:32:37.234Z,13.7
2019-05-13T16:37:41.862Z,12.9
2019-05-13T16:42:42.440Z,12.2
2019-05-13T16:47:56.517Z,11.9
2019-05-13T16:52:47.028Z,11.9
2019-05-13T16:57:51.301Z,12
2019-05-13T17:02:52.016Z,12.1
2019-05-13T17:07:54.385Z,12.1
2019-05-13T17:12:56.754Z,11.9
2019-05-13T17:18:09.058Z,11.6
2019-05-13T17:23:01.935Z,11.3
2019-05-13T17:28:04.207Z,11
2019-05-13T17:33:06.718Z,10.8
2019-05-13T17:38:11.163Z,10.6
2019-05-13T17:43:11.907Z,10.4
2019-05-13T17:48:25.704Z,10.2
2019-05-13T17:53:16.362Z,10
2019-05-13T17:58:18.820Z,9.9
2019-05-13T18:03:21.185Z,9.7
2019-05-13T18:08:23.680Z,9.7
2019-05-13T18:13:26.276Z,9.6
2019-05-13T18:18:40.004Z,9.4
2019-05-13T18:23:30.942Z,9.3
2019-05-13T18:28:33.379Z,9.1
2019-05-13T18:33:35.826Z,9
2019-05-13T18:38:38.277Z,8.8
2019-05-13T18:43:41.305Z,8.7
2019-05-13T18:48:58.029Z,8.5
2019-05-13T18:53:45.750Z,8.4
2019-05-13T18:58:48.023Z,8.2
2019-05-13T19:03:50.748Z,8.2
2019-05-13T19:08:52.996Z,8.1
2019-05-13T19:13:55.374Z,8
2019-05-13T19:19:10.608Z,8
2019-05-13T19:24:02.012Z,7.9
2019-05-13T19:29:02.652Z,7.9
2019-05-13T19:34:05.389Z,7.8
2019-05-13T19:39:07.767Z,7.8
2019-05-13T19:44:10.003Z,7.8
2019-05-13T19:49:27.356Z,7.8
2019-05-13T19:54:14.912Z,7.7
2019-05-13T19:59:17.435Z,7.6
2019-05-13T20:04:21.670Z,7.4
2019-05-13T20:09:22.201Z,7.2
2019-05-13T20:14:24.601Z,7.1
2019-05-13T20:19:27.140Z,6.9
2019-05-13T20:24:31.295Z,6.9
2019-05-13T20:29:31.965Z,6.9
2019-05-13T20:34:34.403Z,6.9
2019-05-13T20:39:36.950Z,6.8
2019-05-13T20:44:39.269Z,6.8
2019-05-13T20:49:41.906Z,6.8
2019-05-13T20:54:44.174Z,6.8
2019-05-13T20:59:46.652Z,6.9
2019-05-13T21:04:49.361Z,6.9
2019-05-13T21:09:51.998Z,6.9
2019-05-13T21:14:53.917Z,6.8
2019-05-13T21:19:59.780Z,6.9
2019-05-13T21:24:58.864Z,6.8
2019-05-13T21:30:01.366Z,6.8
2019-05-13T21:35:03.791Z,6.7
2019-05-13T21:40:07.445Z,6.6
2019-05-13T21:45:11.131Z,6.5
2019-05-13T21:50:11.589Z,6.4
2019-05-13T21:55:13.454Z,6.2
2019-05-13T22:00:15.925Z,6.1
2019-05-13T22:05:18.377Z,6
2019-05-13T22:10:21.596Z,6
2019-05-13T22:15:23.266Z,6
2019-05-13T22:20:25.634Z,5.9
2019-05-13T22:25:28.093Z,5.9
2019-05-13T22:30:33.197Z,5.8
2019-05-13T22:35:33.011Z,5.8
2019-05-13T22:40:35.459Z,5.8
2019-05-13T22:45:37.959Z,5.7
2019-05-13T22:50:41.542Z,5.6
2019-05-13T22:55:42.829Z,5.3
2019-05-13T23:00:45.212Z,5.2
2019-05-13T23:05:47.597Z,5.2
2019-05-13T23:10:51.411Z,5.2
2019-05-13T23:15:52.758Z,5.2
2019-05-13T23:20:54.908Z,5.1
2019-05-13T23:25:57.387Z,5.1
2019-05-13T23:31:01.650Z,5.2
2019-05-13T23:36:02.247Z,5.2
2019-05-13T23:41:04.768Z,5.2
2019-05-13T23:46:07.170Z,5.1
2019-05-13T23:51:09.656Z,5.1
2019-05-13T23:56:12.023Z,5
